sensor_id;sensor_type;location;lat;lon;timestamp;P1;durP1;ratioP1;P2;durP2;ratioP2
57191;SDS011;43052;52.588;13.396;2022-12-18T00:00:58;37.33;;;16.63;;
57191;SDS011;43052;52.588;13.396;2022-12-18T00:03:24;40.55;;;18.77;;
57191;SDS011;43052;52.588;13.396;2022-12-18T00:05:51;39.63;;;19.40;;
57191;SDS011;43052;52.588;13.396;2022-12-18T00:08:17;40.90;;;17.52;;
57191;SDS011;43052;52.588;13.396;2022-12-18T00:10:43;40.78;;;17.77;;
57191;SDS011;43052;52.588;13.396;2022-12-18T00:13:10;43.85;;;18.35;;
57191;SDS011;43052;52.588;13.396;2022-12-18T00:15:36;38.15;;;17.55;;
57191;SDS011;43052;52.588;13.396;2022-12-18T00:18:03;43.80;;;18.85;;
57191;SDS011;43052;52.588;13.396;2022-12-18T00:20:28;35.58;;;16.02;;
57191;SDS011;43052;52.588;13.396;2022-12-18T00:22:54;41.92;;;17.55;;
57191;SDS011;43052;52.588;13.396;2022-12-18T00:25:20;42.58;;;18.17;;
57191;SDS011;43052;52.588;13.396;2022-12-18T00:27:45;43.20;;;18.80;;
57191;SDS011;43052;52.588;13.396;2022-12-18T00:30:11;42.80;;;19.40;;
57191;SDS011;43052;52.588;13.396;2022-12-18T00:32:36;38.40;;;17.65;;
57191;SDS011;43052;52.588;13.396;2022-12-18T00:35:02;38.75;;;18.52;;
57191;SDS011;43052;52.588;13.396;2022-12-18T00:37:28;37.67;;;17.90;;
57191;SDS011;43052;52.588;13.396;2022-12-18T00:39:53;44.47;;;18.35;;
57191;SDS011;43052;52.588;13.396;2022-12-18T00:42:19;39.83;;;18.20;;
57191;SDS011;43052;52.588;13.396;2022-12-18T00:45:02;45.03;;;19.30;;
57191;SDS011;43052;52.588;13.396;2022-12-18T00:47:28;42.22;;;19.27;;
57191;SDS011;43052;52.588;13.396;2022-12-18T00:49:53;46.17;;;21.50;;
57191;SDS011;43052;52.588;13.396;2022-12-18T00:52:18;50.00;;;20.92;;
57191;SDS011;43052;52.588;13.396;2022-12-18T00:54:44;49.47;;;18.88;;
57191;SDS011;43052;52.588;13.396;2022-12-18T00:57:09;50.83;;;21.15;;
57191;SDS011;43052;52.588;13.396;2022-12-18T00:59:34;53.33;;;21.33;;
57191;SDS011;43052;52.588;13.396;2022-12-18T01:01:59;45.33;;;18.15;;
57191;SDS011;43052;52.588;13.396;2022-12-18T01:04:24;50.63;;;20.40;;
57191;SDS011;43052;52.588;13.396;2022-12-18T01:06:50;43.35;;;20.42;;
57191;SDS011;43052;52.588;13.396;2022-12-18T01:09:15;50.08;;;20.77;;
57191;SDS011;43052;52.588;13.396;2022-12-18T01:11:40;46.08;;;19.73;;
57191;SDS011;43052;52.588;13.396;2022-12-18T01:14:06;45.90;;;20.52;;
57191;SDS011;43052;52.588;13.396;2022-12-18T01:16:31;47.17;;;20.55;;
57191;SDS011;43052;52.588;13.396;2022-12-18T01:18:56;42.67;;;18.92;;
57191;SDS011;43052;52.588;13.396;2022-12-18T01:21:23;42.72;;;19.80;;
57191;SDS011;43052;52.588;13.396;2022-12-18T01:23:52;46.95;;;19.35;;
57191;SDS011;43052;52.588;13.396;2022-12-18T01:26:19;45.40;;;20.45;;
57191;SDS011;43052;52.588;13.396;2022-12-18T01:28:44;39.13;;;18.17;;
57191;SDS011;43052;52.588;13.396;2022-12-18T01:31:10;35.88;;;17.35;;
57191;SDS011;43052;52.588;13.396;2022-12-18T01:33:37;36.47;;;17.17;;
57191;SDS011;43052;52.588;13.396;2022-12-18T01:36:02;41.42;;;18.65;;
57191;SDS011;43052;52.588;13.396;2022-12-18T01:38:28;36.72;;;18.02;;
57191;SDS011;43052;52.588;13.396;2022-12-18T01:40:57;41.80;;;18.35;;
57191;SDS011;43052;52.588;13.396;2022-12-18T01:43:42;39.15;;;19.38;;
57191;SDS011;43052;52.588;13.396;2022-12-18T01:46:19;45.38;;;18.35;;
57191;SDS011;43052;52.588;13.396;2022-12-18T01:48:50;42.30;;;19.08;;
57191;SDS011;43052;52.588;13.396;2022-12-18T01:51:19;39.13;;;17.08;;
57191;SDS011;43052;52.588;13.396;2022-12-18T01:53:45;39.38;;;18.67;;
57191;SDS011;43052;52.588;13.396;2022-12-18T01:56:12;44.28;;;19.25;;
57191;SDS011;43052;52.588;13.396;2022-12-18T01:58:57;48.45;;;19.48;;
57191;SDS011;43052;52.588;13.396;2022-12-18T02:01:25;41.00;;;18.60;;
57191;SDS011;43052;52.588;13.396;2022-12-18T02:03:51;42.75;;;18.27;;
57191;SDS011;43052;52.588;13.396;2022-12-18T02:06:19;45.00;;;20.98;;
57191;SDS011;43052;52.588;13.396;2022-12-18T02:09:07;43.20;;;19.85;;
57191;SDS011;43052;52.588;13.396;2022-12-18T02:14:38;49.03;;;20.77;;
57191;SDS011;43052;52.588;13.396;2022-12-18T02:17:11;44.50;;;19.50;;
57191;SDS011;43052;52.588;13.396;2022-12-18T02:20:17;43.83;;;19.48;;
57191;SDS011;43052;52.588;13.396;2022-12-18T02:23:01;49.20;;;20.58;;
57191;SDS011;43052;52.588;13.396;2022-12-18T02:28:41;43.97;;;19.92;;
57191;SDS011;43052;52.588;13.396;2022-12-18T02:31:11;38.15;;;18.75;;
57191;SDS011;43052;52.588;13.396;2022-12-18T02:33:43;40.80;;;18.60;;
57191;SDS011;43052;52.588;13.396;2022-12-18T02:36:09;47.35;;;20.23;;
57191;SDS011;43052;52.588;13.396;2022-12-18T02:38:37;40.42;;;17.92;;
57191;SDS011;43052;52.588;13.396;2022-12-18T02:41:04;44.60;;;19.02;;
57191;SDS011;43052;52.588;13.396;2022-12-18T02:43:30;39.90;;;19.00;;
57191;SDS011;43052;52.588;13.396;2022-12-18T02:45:56;42.83;;;18.38;;
57191;SDS011;43052;52.588;13.396;2022-12-18T02:48:26;47.47;;;20.42;;
57191;SDS011;43052;52.588;13.396;2022-12-18T02:51:08;46.33;;;19.60;;
57191;SDS011;43052;52.588;13.396;2022-12-18T02:53:58;46.40;;;20.83;;
57191;SDS011;43052;52.588;13.396;2022-12-18T02:56:35;51.67;;;20.67;;
57191;SDS011;43052;52.588;13.396;2022-12-18T02:59:13;46.67;;;19.95;;
57191;SDS011;43052;52.588;13.396;2022-12-18T03:05:03;52.33;;;21.27;;
57191;SDS011;43052;52.588;13.396;2022-12-18T03:07:37;46.27;;;20.50;;
57191;SDS011;43052;52.588;13.396;2022-12-18T03:10:07;51.78;;;21.45;;
57191;SDS011;43052;52.588;13.396;2022-12-18T03:12:37;48.08;;;21.00;;
57191;SDS011;43052;52.588;13.396;2022-12-18T03:15:09;53.63;;;21.38;;
57191;SDS011;43052;52.588;13.396;2022-12-18T03:17:45;46.72;;;20.95;;
57191;SDS011;43052;52.588;13.396;2022-12-18T03:20:14;53.92;;;21.45;;
57191;SDS011;43052;52.588;13.396;2022-12-18T03:22:45;52.97;;;21.70;;
57191;SDS011;43052;52.588;13.396;2022-12-18T03:25:16;52.78;;;22.20;;
57191;SDS011;43052;52.588;13.396;2022-12-18T03:27:44;51.30;;;21.48;;
57191;SDS011;43052;52.588;13.396;2022-12-18T03:30:14;48.22;;;19.33;;
57191;SDS011;43052;52.588;13.396;2022-12-18T03:32:42;49.28;;;21.48;;
57191;SDS011;43052;52.588;13.396;2022-12-18T03:35:13;56.05;;;23.58;;
57191;SDS011;43052;52.588;13.396;2022-12-18T03:37:41;54.78;;;23.15;;
57191;SDS011;43052;52.588;13.396;2022-12-18T03:40:06;54.20;;;21.88;;
57191;SDS011;43052;52.588;13.396;2022-12-18T03:42:37;54.05;;;22.45;;
57191;SDS011;43052;52.588;13.396;2022-12-18T03:45:26;63.90;;;23.20;;
57191;SDS011;43052;52.588;13.396;2022-12-18T03:48:10;62.72;;;23.45;;
57191;SDS011;43052;52.588;13.396;2022-12-18T03:50:59;75.55;;;26.65;;
57191;SDS011;43052;52.588;13.396;2022-12-18T03:53:32;68.05;;;27.70;;
57191;SDS011;43052;52.588;13.396;2022-12-18T03:56:06;70.43;;;28.75;;
57191;SDS011;43052;52.588;13.396;2022-12-18T03:58:33;68.47;;;27.00;;
57191;SDS011;43052;52.588;13.396;2022-12-18T04:01:01;68.40;;;27.52;;
57191;SDS011;43052;52.588;13.396;2022-12-18T04:03:28;67.07;;;24.55;;
57191;SDS011;43052;52.588;13.396;2022-12-18T04:05:56;71.13;;;26.98;;
57191;SDS011;43052;52.588;13.396;2022-12-18T04:08:24;71.80;;;26.98;;
57191;SDS011;43052;52.588;13.396;2022-12-18T04:10:50;66.30;;;26.58;;
57191;SDS011;43052;52.588;13.396;2022-12-18T04:13:49;64.10;;;26.67;;
57191;SDS011;43052;52.588;13.396;2022-12-18T04:16:08;47.28;;;17.65;;
57191;SDS011;43052;52.588;13.396;2022-12-18T04:18:34;62.33;;;24.38;;
57191;SDS011;43052;52.588;13.396;2022-12-18T04:21:00;60.20;;;23.42;;
57191;SDS011;43052;52.588;13.396;2022-12-18T04:23:25;53.22;;;19.02;;
57191;SDS011;43052;52.588;13.396;2022-12-18T04:25:50;53.92;;;23.25;;
57191;SDS011;43052;52.588;13.396;2022-12-18T04:28:15;47.78;;;21.75;;
57191;SDS011;43052;52.588;13.396;2022-12-18T04:30:41;58.60;;;24.70;;
57191;SDS011;43052;52.588;13.396;2022-12-18T04:33:10;51.17;;;19.67;;
57191;SDS011;43052;52.588;13.396;2022-12-18T04:35:36;51.25;;;21.25;;
57191;SDS011;43052;52.588;13.396;2022-12-18T04:38:01;53.47;;;21.88;;
57191;SDS011;43052;52.588;13.396;2022-12-18T04:40:27;58.95;;;22.02;;
57191;SDS011;43052;52.588;13.396;2022-12-18T04:42:52;51.65;;;20.95;;
57191;SDS011;43052;52.588;13.396;2022-12-18T04:45:17;46.17;;;18.77;;
57191;SDS011;43052;52.588;13.396;2022-12-18T04:47:43;53.63;;;21.73;;
57191;SDS011;43052;52.588;13.396;2022-12-18T04:50:08;47.45;;;21.25;;
57191;SDS011;43052;52.588;13.396;2022-12-18T04:52:33;52.67;;;21.55;;
57191;SDS011;43052;52.588;13.396;2022-12-18T04:54:59;49.35;;;21.25;;
57191;SDS011;43052;52.588;13.396;2022-12-18T04:57:24;49.97;;;20.90;;
57191;SDS011;43052;52.588;13.396;2022-12-18T04:59:49;46.03;;;21.23;;
57191;SDS011;43052;52.588;13.396;2022-12-18T05:02:14;55.45;;;21.92;;
57191;SDS011;43052;52.588;13.396;2022-12-18T05:04:40;49.78;;;22.50;;
57191;SDS011;43052;52.588;13.396;2022-12-18T05:07:05;45.28;;;19.75;;
57191;SDS011;43052;52.588;13.396;2022-12-18T05:09:30;52.10;;;21.52;;
57191;SDS011;43052;52.588;13.396;2022-12-18T05:11:55;49.05;;;21.10;;
57191;SDS011;43052;52.588;13.396;2022-12-18T05:14:20;50.30;;;20.67;;
57191;SDS011;43052;52.588;13.396;2022-12-18T05:16:46;49.42;;;20.55;;
57191;SDS011;43052;52.588;13.396;2022-12-18T05:19:11;50.88;;;20.60;;
57191;SDS011;43052;52.588;13.396;2022-12-18T05:21:36;46.03;;;20.73;;
57191;SDS011;43052;52.588;13.396;2022-12-18T05:24:01;48.80;;;19.73;;
57191;SDS011;43052;52.588;13.396;2022-12-18T05:26:27;47.88;;;19.92;;
57191;SDS011;43052;52.588;13.396;2022-12-18T05:28:52;49.70;;;21.27;;
57191;SDS011;43052;52.588;13.396;2022-12-18T05:31:17;51.47;;;21.40;;
57191;SDS011;43052;52.588;13.396;2022-12-18T05:33:42;54.40;;;21.48;;
57191;SDS011;43052;52.588;13.396;2022-12-18T05:36:08;47.67;;;20.05;;
57191;SDS011;43052;52.588;13.396;2022-12-18T05:38:34;39.13;;;18.08;;
57191;SDS011;43052;52.588;13.396;2022-12-18T05:41:01;50.20;;;20.40;;
57191;SDS011;43052;52.588;13.396;2022-12-18T05:43:27;48.55;;;20.90;;
57191;SDS011;43052;52.588;13.396;2022-12-18T05:45:54;46.38;;;20.13;;
57191;SDS011;43052;52.588;13.396;2022-12-18T05:48:19;46.55;;;20.98;;
57191;SDS011;43052;52.588;13.396;2022-12-18T05:50:45;42.88;;;20.23;;
57191;SDS011;43052;52.588;13.396;2022-12-18T05:53:13;45.10;;;20.08;;
57191;SDS011;43052;52.588;13.396;2022-12-18T05:55:41;48.22;;;20.10;;
57191;SDS011;43052;52.588;13.396;2022-12-18T05:58:07;44.42;;;19.65;;
57191;SDS011;43052;52.588;13.396;2022-12-18T06:00:34;41.28;;;19.15;;
57191;SDS011;43052;52.588;13.396;2022-12-18T06:03:01;45.55;;;18.52;;
57191;SDS011;43052;52.588;13.396;2022-12-18T06:05:27;49.50;;;18.90;;
57191;SDS011;43052;52.588;13.396;2022-12-18T06:07:52;46.05;;;19.02;;
57191;SDS011;43052;52.588;13.396;2022-12-18T06:10:17;42.55;;;18.02;;
57191;SDS011;43052;52.588;13.396;2022-12-18T06:12:43;40.38;;;16.73;;
57191;SDS011;43052;52.588;13.396;2022-12-18T06:15:08;49.70;;;19.77;;
57191;SDS011;43052;52.588;13.396;2022-12-18T06:17:35;49.20;;;19.73;;
57191;SDS011;43052;52.588;13.396;2022-12-18T06:20:00;46.83;;;20.52;;
57191;SDS011;43052;52.588;13.396;2022-12-18T06:22:26;44.38;;;18.80;;
57191;SDS011;43052;52.588;13.396;2022-12-18T06:24:52;53.90;;;22.27;;
57191;SDS011;43052;52.588;13.396;2022-12-18T06:27:17;48.00;;;21.25;;
57191;SDS011;43052;52.588;13.396;2022-12-18T06:29:42;53.58;;;20.30;;
57191;SDS011;43052;52.588;13.396;2022-12-18T06:32:07;63.22;;;24.85;;
57191;SDS011;43052;52.588;13.396;2022-12-18T06:34:33;77.57;;;26.60;;
57191;SDS011;43052;52.588;13.396;2022-12-18T06:36:58;95.78;;;30.60;;
57191;SDS011;43052;52.588;13.396;2022-12-18T06:39:24;80.65;;;27.45;;
57191;SDS011;43052;52.588;13.396;2022-12-18T06:41:49;92.38;;;29.95;;
57191;SDS011;43052;52.588;13.396;2022-12-18T06:44:14;82.70;;;28.88;;
57191;SDS011;43052;52.588;13.396;2022-12-18T06:46:40;67.72;;;26.02;;
57191;SDS011;43052;52.588;13.396;2022-12-18T06:49:05;67.90;;;24.55;;
57191;SDS011;43052;52.588;13.396;2022-12-18T06:51:30;72.00;;;25.20;;
57191;SDS011;43052;52.588;13.396;2022-12-18T06:53:56;65.88;;;23.55;;
57191;SDS011;43052;52.588;13.396;2022-12-18T06:56:21;67.25;;;23.98;;
57191;SDS011;43052;52.588;13.396;2022-12-18T06:58:46;57.13;;;22.15;;
57191;SDS011;43052;52.588;13.396;2022-12-18T07:01:12;56.30;;;23.13;;
57191;SDS011;43052;52.588;13.396;2022-12-18T07:03:38;56.90;;;21.30;;
57191;SDS011;43052;52.588;13.396;2022-12-18T07:06:05;56.20;;;24.45;;
57191;SDS011;43052;52.588;13.396;2022-12-18T07:08:31;52.17;;;20.95;;
57191;SDS011;43052;52.588;13.396;2022-12-18T07:10:57;62.05;;;22.20;;
57191;SDS011;43052;52.588;13.396;2022-12-18T07:13:22;61.05;;;23.02;;
57191;SDS011;43052;52.588;13.396;2022-12-18T07:15:48;60.13;;;24.95;;
57191;SDS011;43052;52.588;13.396;2022-12-18T07:18:13;59.97;;;25.17;;
57191;SDS011;43052;52.588;13.396;2022-12-18T07:20:38;62.85;;;23.67;;
57191;SDS011;43052;52.588;13.396;2022-12-18T07:23:04;56.85;;;23.23;;
57191;SDS011;43052;52.588;13.396;2022-12-18T07:25:30;54.30;;;23.23;;
57191;SDS011;43052;52.588;13.396;2022-12-18T07:27:58;58.47;;;23.38;;
57191;SDS011;43052;52.588;13.396;2022-12-18T07:30:23;56.28;;;23.73;;
57191;SDS011;43052;52.588;13.396;2022-12-18T07:32:48;62.15;;;26.65;;
57191;SDS011;43052;52.588;13.396;2022-12-18T07:35:14;49.90;;;19.55;;
57191;SDS011;43052;52.588;13.396;2022-12-18T07:37:39;62.58;;;22.42;;
57191;SDS011;43052;52.588;13.396;2022-12-18T07:40:04;60.10;;;24.08;;
57191;SDS011;43052;52.588;13.396;2022-12-18T07:42:31;62.63;;;23.38;;
57191;SDS011;43052;52.588;13.396;2022-12-18T07:44:56;53.20;;;22.25;;
57191;SDS011;43052;52.588;13.396;2022-12-18T07:47:22;58.95;;;23.55;;
57191;SDS011;43052;52.588;13.396;2022-12-18T07:49:47;60.17;;;23.65;;
57191;SDS011;43052;52.588;13.396;2022-12-18T07:52:13;59.97;;;26.38;;
57191;SDS011;43052;52.588;13.396;2022-12-18T07:54:38;57.00;;;22.98;;
57191;SDS011;43052;52.588;13.396;2022-12-18T07:57:05;56.90;;;21.05;;
57191;SDS011;43052;52.588;13.396;2022-12-18T07:59:30;55.60;;;23.58;;
57191;SDS011;43052;52.588;13.396;2022-12-18T08:01:55;61.45;;;24.85;;
57191;SDS011;43052;52.588;13.396;2022-12-18T08:04:20;54.80;;;23.92;;
57191;SDS011;43052;52.588;13.396;2022-12-18T08:06:46;55.42;;;24.50;;
57191;SDS011;43052;52.588;13.396;2022-12-18T08:09:11;57.13;;;22.75;;
57191;SDS011;43052;52.588;13.396;2022-12-18T08:11:36;56.42;;;23.88;;
57191;SDS011;43052;52.588;13.396;2022-12-18T08:14:02;58.15;;;23.52;;
57191;SDS011;43052;52.588;13.396;2022-12-18T08:16:27;55.45;;;22.48;;
57191;SDS011;43052;52.588;13.396;2022-12-18T08:18:52;57.50;;;23.33;;
57191;SDS011;43052;52.588;13.396;2022-12-18T08:21:23;47.38;;;20.83;;
57191;SDS011;43052;52.588;13.396;2022-12-18T08:23:50;54.08;;;22.00;;
57191;SDS011;43052;52.588;13.396;2022-12-18T08:26:17;56.97;;;25.80;;
57191;SDS011;43052;52.588;13.396;2022-12-18T08:28:42;52.03;;;21.25;;
57191;SDS011;43052;52.588;13.396;2022-12-18T08:31:08;53.00;;;22.15;;
57191;SDS011;43052;52.588;13.396;2022-12-18T08:33:34;61.38;;;25.15;;
57191;SDS011;43052;52.588;13.396;2022-12-18T08:36:01;49.35;;;21.05;;
57191;SDS011;43052;52.588;13.396;2022-12-18T08:38:27;52.08;;;20.75;;
57191;SDS011;43052;52.588;13.396;2022-12-18T08:40:59;47.88;;;21.83;;
57191;SDS011;43052;52.588;13.396;2022-12-18T08:43:25;54.75;;;23.17;;
57191;SDS011;43052;52.588;13.396;2022-12-18T08:46:11;53.78;;;22.60;;
57191;SDS011;43052;52.588;13.396;2022-12-18T08:48:36;53.20;;;21.70;;
57191;SDS011;43052;52.588;13.396;2022-12-18T08:51:02;57.42;;;23.55;;
57191;SDS011;43052;52.588;13.396;2022-12-18T08:53:27;50.92;;;21.42;;
57191;SDS011;43052;52.588;13.396;2022-12-18T08:55:52;49.60;;;22.30;;
57191;SDS011;43052;52.588;13.396;2022-12-18T08:58:18;53.17;;;21.48;;
57191;SDS011;43052;52.588;13.396;2022-12-18T09:00:44;52.53;;;23.65;;
57191;SDS011;43052;52.588;13.396;2022-12-18T09:03:16;52.22;;;22.35;;
57191;SDS011;43052;52.588;13.396;2022-12-18T09:05:43;50.65;;;21.33;;
57191;SDS011;43052;52.588;13.396;2022-12-18T09:08:10;44.03;;;22.50;;
57191;SDS011;43052;52.588;13.396;2022-12-18T09:10:41;45.63;;;22.48;;
57191;SDS011;43052;52.588;13.396;2022-12-18T09:15:46;42.22;;;21.38;;
57191;SDS011;43052;52.588;13.396;2022-12-18T09:18:13;43.20;;;20.13;;
57191;SDS011;43052;52.588;13.396;2022-12-18T09:20:40;42.92;;;19.92;;
57191;SDS011;43052;52.588;13.396;2022-12-18T09:23:05;40.95;;;20.00;;
57191;SDS011;43052;52.588;13.396;2022-12-18T09:25:31;41.78;;;19.10;;
57191;SDS011;43052;52.588;13.396;2022-12-18T09:28:09;42.17;;;20.00;;
57191;SDS011;43052;52.588;13.396;2022-12-18T09:30:39;45.38;;;20.20;;
57191;SDS011;43052;52.588;13.396;2022-12-18T09:33:12;39.60;;;19.83;;
57191;SDS011;43052;52.588;13.396;2022-12-18T09:35:38;44.90;;;22.45;;
57191;SDS011;43052;52.588;13.396;2022-12-18T09:38:04;42.60;;;19.85;;
57191;SDS011;43052;52.588;13.396;2022-12-18T09:40:32;40.90;;;19.33;;
57191;SDS011;43052;52.588;13.396;2022-12-18T09:43:06;42.38;;;19.48;;
57191;SDS011;43052;52.588;13.396;2022-12-18T09:45:41;44.17;;;20.45;;
57191;SDS011;43052;52.588;13.396;2022-12-18T09:48:52;39.05;;;20.55;;
57191;SDS011;43052;52.588;13.396;2022-12-18T09:51:16;44.70;;;19.98;;
57191;SDS011;43052;52.588;13.396;2022-12-18T09:53:46;45.13;;;20.58;;
57191;SDS011;43052;52.588;13.396;2022-12-18T09:56:19;42.72;;;22.00;;
57191;SDS011;43052;52.588;13.396;2022-12-18T09:58:58;47.08;;;21.27;;
57191;SDS011;43052;52.588;13.396;2022-12-18T10:01:26;43.03;;;21.98;;
57191;SDS011;43052;52.588;13.396;2022-12-18T10:03:52;43.63;;;20.67;;
57191;SDS011;43052;52.588;13.396;2022-12-18T10:06:24;42.65;;;19.73;;
57191;SDS011;43052;52.588;13.396;2022-12-18T10:09:17;39.53;;;18.15;;
57191;SDS011;43052;52.588;13.396;2022-12-18T10:11:49;37.92;;;16.52;;
57191;SDS011;43052;52.588;13.396;2022-12-18T10:14:29;43.75;;;20.25;;
57191;SDS011;43052;52.588;13.396;2022-12-18T10:17:11;44.88;;;18.73;;
57191;SDS011;43052;52.588;13.396;2022-12-18T10:19:51;44.08;;;20.70;;
57191;SDS011;43052;52.588;13.396;2022-12-18T10:22:36;35.83;;;16.23;;
57191;SDS011;43052;52.588;13.396;2022-12-18T10:25:20;45.20;;;20.02;;
57191;SDS011;43052;52.588;13.396;2022-12-18T10:27:53;43.10;;;19.30;;
57191;SDS011;43052;52.588;13.396;2022-12-18T10:30:23;41.45;;;17.67;;
57191;SDS011;43052;52.588;13.396;2022-12-18T10:32:49;46.63;;;21.50;;
57191;SDS011;43052;52.588;13.396;2022-12-18T10:35:16;43.97;;;21.75;;
57191;SDS011;43052;52.588;13.396;2022-12-18T10:40:31;50.80;;;21.40;;
57191;SDS011;43052;52.588;13.396;2022-12-18T10:43:04;51.03;;;23.42;;
57191;SDS011;43052;52.588;13.396;2022-12-18T10:45:38;85.53;;;40.78;;
57191;SDS011;43052;52.588;13.396;2022-12-18T10:48:17;35.45;;;17.33;;
57191;SDS011;43052;52.588;13.396;2022-12-18T10:50:45;53.72;;;24.05;;
57191;SDS011;43052;52.588;13.396;2022-12-18T10:53:15;52.22;;;25.38;;
57191;SDS011;43052;52.588;13.396;2022-12-18T10:55:45;40.60;;;19.55;;
57191;SDS011;43052;52.588;13.396;2022-12-18T11:06:03;40.15;;;17.10;;
57191;SDS011;43052;52.588;13.396;2022-12-18T11:08:30;56.65;;;24.85;;
57191;SDS011;43052;52.588;13.396;2022-12-18T11:10:55;46.25;;;18.95;;
57191;SDS011;43052;52.588;13.396;2022-12-18T11:13:24;47.25;;;19.10;;
57191;SDS011;43052;52.588;13.396;2022-12-18T11:15:51;52.25;;;21.73;;
57191;SDS011;43052;52.588;13.396;2022-12-18T11:18:17;58.95;;;26.88;;
57191;SDS011;43052;52.588;13.396;2022-12-18T11:20:50;46.00;;;18.92;;
57191;SDS011;43052;52.588;13.396;2022-12-18T11:23:18;50.15;;;21.80;;
57191;SDS011;43052;52.588;13.396;2022-12-18T11:25:52;56.38;;;24.80;;
57191;SDS011;43052;52.588;13.396;2022-12-18T11:28:27;56.80;;;23.50;;
57191;SDS011;43052;52.588;13.396;2022-12-18T11:33:42;46.67;;;21.52;;
57191;SDS011;43052;52.588;13.396;2022-12-18T11:36:15;47.93;;;21.50;;
57191;SDS011;43052;52.588;13.396;2022-12-18T11:38:42;49.50;;;21.23;;
57191;SDS011;43052;52.588;13.396;2022-12-18T11:41:19;48.50;;;18.85;;
57191;SDS011;43052;52.588;13.396;2022-12-18T11:44:28;31.05;;;14.45;;
57191;SDS011;43052;52.588;13.396;2022-12-18T11:47:04;35.03;;;17.17;;
57191;SDS011;43052;52.588;13.396;2022-12-18T11:49:44;44.13;;;22.02;;
57191;SDS011;43052;52.588;13.396;2022-12-18T11:52:19;53.55;;;22.23;;
57191;SDS011;43052;52.588;13.396;2022-12-18T11:54:52;51.10;;;21.92;;
57191;SDS011;43052;52.588;13.396;2022-12-18T11:57:32;51.15;;;22.27;;
57191;SDS011;43052;52.588;13.396;2022-12-18T12:08:11;49.92;;;22.45;;
57191;SDS011;43052;52.588;13.396;2022-12-18T12:16:42;46.80;;;19.90;;
57191;SDS011;43052;52.588;13.396;2022-12-18T12:19:26;38.35;;;16.58;;
57191;SDS011;43052;52.588;13.396;2022-12-18T12:22:14;42.72;;;18.85;;
57191;SDS011;43052;52.588;13.396;2022-12-18T12:25:04;44.47;;;20.45;;
57191;SDS011;43052;52.588;13.396;2022-12-18T12:33:20;45.42;;;19.95;;
57191;SDS011;43052;52.588;13.396;2022-12-18T12:36:13;37.03;;;17.17;;
57191;SDS011;43052;52.588;13.396;2022-12-18T12:39:05;43.47;;;19.40;;
57191;SDS011;43052;52.588;13.396;2022-12-18T12:41:33;47.05;;;21.23;;
57191;SDS011;43052;52.588;13.396;2022-12-18T12:44:22;42.03;;;20.38;;
57191;SDS011;43052;52.588;13.396;2022-12-18T12:46:51;45.03;;;21.08;;
57191;SDS011;43052;52.588;13.396;2022-12-18T12:49:20;47.45;;;21.38;;
57191;SDS011;43052;52.588;13.396;2022-12-18T12:51:52;44.85;;;21.60;;
57191;SDS011;43052;52.588;13.396;2022-12-18T12:54:25;43.08;;;19.40;;
57191;SDS011;43052;52.588;13.396;2022-12-18T12:57:12;41.42;;;19.67;;
57191;SDS011;43052;52.588;13.396;2022-12-18T12:59:49;38.97;;;17.73;;
57191;SDS011;43052;52.588;13.396;2022-12-18T13:02:34;45.13;;;22.65;;
57191;SDS011;43052;52.588;13.396;2022-12-18T13:07:51;44.35;;;22.58;;
57191;SDS011;43052;52.588;13.396;2022-12-18T13:13:12;41.88;;;21.00;;
57191;SDS011;43052;52.588;13.396;2022-12-18T13:18:17;38.95;;;20.17;;
57191;SDS011;43052;52.588;13.396;2022-12-18T13:20:46;38.28;;;19.80;;
57191;SDS011;43052;52.588;13.396;2022-12-18T13:25:48;37.35;;;19.92;;
57191;SDS011;43052;52.588;13.396;2022-12-18T13:30:58;40.63;;;18.83;;
57191;SDS011;43052;52.588;13.396;2022-12-18T13:38:33;39.42;;;20.15;;
57191;SDS011;43052;52.588;13.396;2022-12-18T13:41:01;36.80;;;19.27;;
57191;SDS011;43052;52.588;13.396;2022-12-18T13:43:41;37.30;;;18.48;;
57191;SDS011;43052;52.588;13.396;2022-12-18T13:46:27;40.47;;;20.30;;
57191;SDS011;43052;52.588;13.396;2022-12-18T13:51:40;38.30;;;18.73;;
57191;SDS011;43052;52.588;13.396;2022-12-18T13:56:58;35.13;;;18.73;;
57191;SDS011;43052;52.588;13.396;2022-12-18T13:59:33;37.90;;;14.85;;
57191;SDS011;43052;52.588;13.396;2022-12-18T14:02:05;35.08;;;18.10;;
57191;SDS011;43052;52.588;13.396;2022-12-18T14:04:37;44.20;;;20.30;;
57191;SDS011;43052;52.588;13.396;2022-12-18T14:07:04;39.53;;;18.98;;
57191;SDS011;43052;52.588;13.396;2022-12-18T14:09:37;41.30;;;19.17;;
57191;SDS011;43052;52.588;13.396;2022-12-18T14:12:06;37.53;;;17.97;;
57191;SDS011;43052;52.588;13.396;2022-12-18T14:14:58;38.55;;;18.25;;
57191;SDS011;43052;52.588;13.396;2022-12-18T14:17:25;34.72;;;16.95;;
57191;SDS011;43052;52.588;13.396;2022-12-18T14:19:51;40.92;;;20.08;;
57191;SDS011;43052;52.588;13.396;2022-12-18T14:22:18;32.50;;;17.55;;
57191;SDS011;43052;52.588;13.396;2022-12-18T14:24:46;41.65;;;20.90;;
57191;SDS011;43052;52.588;13.396;2022-12-18T14:27:25;40.65;;;20.40;;
57191;SDS011;43052;52.588;13.396;2022-12-18T14:29:51;39.05;;;18.85;;
57191;SDS011;43052;52.588;13.396;2022-12-18T14:32:17;41.53;;;21.65;;
57191;SDS011;43052;52.588;13.396;2022-12-18T14:34:51;34.72;;;17.60;;
57191;SDS011;43052;52.588;13.396;2022-12-18T14:37:22;25.95;;;14.38;;
57191;SDS011;43052;52.588;13.396;2022-12-18T14:39:53;40.78;;;19.42;;
57191;SDS011;43052;52.588;13.396;2022-12-18T14:42:20;32.53;;;18.08;;
57191;SDS011;43052;52.588;13.396;2022-12-18T14:44:45;40.50;;;20.60;;
57191;SDS011;43052;52.588;13.396;2022-12-18T14:47:13;34.30;;;17.98;;
57191;SDS011;43052;52.588;13.396;2022-12-18T14:49:40;28.88;;;16.58;;
57191;SDS011;43052;52.588;13.396;2022-12-18T14:52:15;37.30;;;20.70;;
57191;SDS011;43052;52.588;13.396;2022-12-18T14:54:47;32.35;;;15.48;;
57191;SDS011;43052;52.588;13.396;2022-12-18T15:00:06;42.10;;;22.92;;
57191;SDS011;43052;52.588;13.396;2022-12-18T15:02:34;34.40;;;17.55;;
57191;SDS011;43052;52.588;13.396;2022-12-18T15:05:02;39.42;;;22.58;;
57191;SDS011;43052;52.588;13.396;2022-12-18T15:07:44;37.50;;;20.35;;
57191;SDS011;43052;52.588;13.396;2022-12-18T15:10:16;38.20;;;19.75;;
57191;SDS011;43052;52.588;13.396;2022-12-18T15:12:48;38.92;;;20.00;;
57191;SDS011;43052;52.588;13.396;2022-12-18T15:17:59;36.63;;;19.60;;
57191;SDS011;43052;52.588;13.396;2022-12-18T15:20:48;38.08;;;19.58;;
57191;SDS011;43052;52.588;13.396;2022-12-18T15:23:38;34.80;;;18.42;;
57191;SDS011;43052;52.588;13.396;2022-12-18T15:26:10;33.10;;;19.83;;
57191;SDS011;43052;52.588;13.396;2022-12-18T15:28:51;62.55;;;34.30;;
57191;SDS011;43052;52.588;13.396;2022-12-18T15:31:22;43.40;;;25.60;;
57191;SDS011;43052;52.588;13.396;2022-12-18T15:36:21;32.70;;;19.13;;
57191;SDS011;43052;52.588;13.396;2022-12-18T15:38:49;29.90;;;15.25;;
57191;SDS011;43052;52.588;13.396;2022-12-18T15:41:15;32.33;;;16.52;;